sensor_id;sensor_type;location;lat;lon;timestamp;temperature;humidity
57132;DHT22;43005;52.922;5.742;2022-08-04T00:00:41;22.40;99.70
57132;DHT22;43005;52.922;5.742;2022-08-04T00:03:12;22.30;99.90
57132;DHT22;43005;52.922;5.742;2022-08-04T00:05:42;22.30;99.90
57132;DHT22;43005;52.922;5.742;2022-08-04T00:08:11;22.30;99.90
57132;DHT22;43005;52.922;5.742;2022-08-04T00:10:44;22.20;99.90
57132;DHT22;43005;52.922;5.742;2022-08-04T00:13:15;22.20;99.90
57132;DHT22;43005;52.922;5.742;2022-08-04T00:15:42;22.20;99.90
57132;DHT22;43005;52.922;5.742;2022-08-04T00:18:09;22.20;99.90
57132;DHT22;43005;52.922;5.742;2022-08-04T00:20:40;22.20;99.90
57132;DHT22;43005;52.922;5.742;2022-08-04T00:23:08;22.20;99.90
57132;DHT22;43005;52.922;5.742;2022-08-04T00:25:37;22.20;99.90
57132;DHT22;43005;52.922;5.742;2022-08-04T00:28:04;22.20;99.90
57132;DHT22;43005;52.922;5.742;2022-08-04T00:30:32;22.20;99.90
57132;DHT22;43005;52.922;5.742;2022-08-04T00:32:59;22.20;99.90
57132;DHT22;43005;52.922;5.742;2022-08-04T00:35:27;22.30;99.90
57132;DHT22;43005;52.922;5.742;2022-08-04T00:37:54;22.20;99.70
57132;DHT22;43005;52.922;5.742;2022-08-04T00:40:22;22.20;99.90
57132;DHT22;43005;52.922;5.742;2022-08-04T00:42:50;22.30;99.90
57132;DHT22;43005;52.922;5.742;2022-08-04T00:45:28;22.30;99.90
57132;DHT22;43005;52.922;5.742;2022-08-04T00:48:03;22.30;99.90
57132;DHT22;43005;52.922;5.742;2022-08-04T00:50:34;22.30;99.90
57132;DHT22;43005;52.922;5.742;2022-08-04T00:53:05;22.30;99.90
57132;DHT22;43005;52.922;5.742;2022-08-04T00:55:42;22.30;99.90
57132;DHT22;43005;52.922;5.742;2022-08-04T00:58:18;22.30;99.90
57132;DHT22;43005;52.922;5.742;2022-08-04T01:00:47;22.30;99.90
57132;DHT22;43005;52.922;5.742;2022-08-04T01:03:20;22.30;99.80
57132;DHT22;43005;52.922;5.742;2022-08-04T01:05:51;22.30;99.60
57132;DHT22;43005;52.922;5.742;2022-08-04T01:11:08;22.30;99.90
57132;DHT22;43005;52.922;5.742;2022-08-04T01:13:45;22.30;99.90
57132;DHT22;43005;52.922;5.742;2022-08-04T01:16:17;22.30;99.90
57132;DHT22;43005;52.922;5.742;2022-08-04T01:18:51;22.30;99.90
57132;DHT22;43005;52.922;5.742;2022-08-04T01:21:33;22.30;99.90
57132;DHT22;43005;52.922;5.742;2022-08-04T01:26:49;22.30;99.90
57132;DHT22;43005;52.922;5.742;2022-08-04T01:29:20;22.30;99.90
57132;DHT22;43005;52.922;5.742;2022-08-04T01:31:49;22.30;99.90
57132;DHT22;43005;52.922;5.742;2022-08-04T01:34:19;22.30;99.90
57132;DHT22;43005;52.922;5.742;2022-08-04T01:36:47;22.30;99.70
57132;DHT22;43005;52.922;5.742;2022-08-04T01:39:16;22.30;99.50
57132;DHT22;43005;52.922;5.742;2022-08-04T01:41:58;22.30;99.90
57132;DHT22;43005;52.922;5.742;2022-08-04T01:44:27;22.30;99.90
57132;DHT22;43005;52.922;5.742;2022-08-04T01:46:54;22.30;99.90
57132;DHT22;43005;52.922;5.742;2022-08-04T01:49:20;22.20;99.90
57132;DHT22;43005;52.922;5.742;2022-08-04T01:51:48;22.20;99.90
57132;DHT22;43005;52.922;5.742;2022-08-04T01:54:15;22.20;99.90
57132;DHT22;43005;52.922;5.742;2022-08-04T01:56:43;22.20;99.90
57132;DHT22;43005;52.922;5.742;2022-08-04T01:59:11;22.10;99.90
57132;DHT22;43005;52.922;5.742;2022-08-04T02:01:42;22.20;99.90
57132;DHT22;43005;52.922;5.742;2022-08-04T02:04:10;22.10;99.90
57132;DHT22;43005;52.922;5.742;2022-08-04T02:06:40;22.10;99.90
57132;DHT22;43005;52.922;5.742;2022-08-04T02:09:10;22.10;99.90
57132;DHT22;43005;52.922;5.742;2022-08-04T02:11:38;22.10;99.90
57132;DHT22;43005;52.922;5.742;2022-08-04T02:14:12;22.20;99.90
57132;DHT22;43005;52.922;5.742;2022-08-04T02:17:03;22.20;99.90
57132;DHT22;43005;52.922;5.742;2022-08-04T02:19:34;22.20;99.90
57132;DHT22;43005;52.922;5.742;2022-08-04T02:22:02;22.20;99.90
57132;DHT22;43005;52.922;5.742;2022-08-04T02:24:32;22.20;99.90
57132;DHT22;43005;52.922;5.742;2022-08-04T02:27:01;22.10;99.90
57132;DHT22;43005;52.922;5.742;2022-08-04T02:29:29;22.20;99.90
57132;DHT22;43005;52.922;5.742;2022-08-04T02:32:01;22.20;99.90
57132;DHT22;43005;52.922;5.742;2022-08-04T02:34:31;22.20;99.90
57132;DHT22;43005;52.922;5.742;2022-08-04T02:37:00;22.20;99.90
57132;DHT22;43005;52.922;5.742;2022-08-04T02:39:30;22.20;99.90
57132;DHT22;43005;52.922;5.742;2022-08-04T02:41:58;22.20;99.90
57132;DHT22;43005;52.922;5.742;2022-08-04T02:44:25;22.30;99.90
57132;DHT22;43005;52.922;5.742;2022-08-04T02:46:53;22.30;99.90
57132;DHT22;43005;52.922;5.742;2022-08-04T02:49:20;22.30;99.90
57132;DHT22;43005;52.922;5.742;2022-08-04T02:51:50;22.30;99.90
57132;DHT22;43005;52.922;5.742;2022-08-04T02:54:17;22.30;99.90
57132;DHT22;43005;52.922;5.742;2022-08-04T02:56:45;22.30;99.90
57132;DHT22;43005;52.922;5.742;2022-08-04T02:59:12;22.30;99.90
57132;DHT22;43005;52.922;5.742;2022-08-04T03:01:40;22.30;99.90
57132;DHT22;43005;52.922;5.742;2022-08-04T03:09:41;22.30;99.90
57132;DHT22;43005;52.922;5.742;2022-08-04T03:12:21;22.30;99.90
57132;DHT22;43005;52.922;5.742;2022-08-04T03:29:02;22.20;99.90
57132;DHT22;43005;52.922;5.742;2022-08-04T03:34:25;22.10;99.90
57132;DHT22;43005;52.922;5.742;2022-08-04T03:36:59;22.10;99.90
57132;DHT22;43005;52.922;5.742;2022-08-04T03:45:16;22.00;99.90
57132;DHT22;43005;52.922;5.742;2022-08-04T03:48:00;22.00;99.90
57132;DHT22;43005;52.922;5.742;2022-08-04T03:53:46;22.00;99.90
57132;DHT22;43005;52.922;5.742;2022-08-04T03:59:04;22.00;99.90
57132;DHT22;43005;52.922;5.742;2022-08-04T04:01:41;21.90;99.90
57132;DHT22;43005;52.922;5.742;2022-08-04T04:04:24;21.80;99.90
57132;DHT22;43005;52.922;5.742;2022-08-04T04:07:10;21.80;99.90
57132;DHT22;43005;52.922;5.742;2022-08-04T04:15:36;22.00;99.90
57132;DHT22;43005;52.922;5.742;2022-08-04T04:18:18;22.00;99.90
57132;DHT22;43005;52.922;5.742;2022-08-04T04:23:30;21.90;99.90
57132;DHT22;43005;52.922;5.742;2022-08-04T04:26:02;21.90;99.90
57132;DHT22;43005;52.922;5.742;2022-08-04T04:31:17;21.80;99.90
57132;DHT22;43005;52.922;5.742;2022-08-04T04:33:49;21.80;99.90
57132;DHT22;43005;52.922;5.742;2022-08-04T04:36:22;21.80;99.90
57132;DHT22;43005;52.922;5.742;2022-08-04T04:38:56;21.70;99.90
57132;DHT22;43005;52.922;5.742;2022-08-04T04:41:30;21.80;99.90
57132;DHT22;43005;52.922;5.742;2022-08-04T04:46:49;21.80;99.90
57132;DHT22;43005;52.922;5.742;2022-08-04T04:49:27;21.80;99.90
57132;DHT22;43005;52.922;5.742;2022-08-04T04:51:57;21.80;99.90
57132;DHT22;43005;52.922;5.742;2022-08-04T04:54:27;21.80;99.90
57132;DHT22;43005;52.922;5.742;2022-08-04T04:56:59;21.90;99.90
57132;DHT22;43005;52.922;5.742;2022-08-04T04:59:30;21.90;99.90
57132;DHT22;43005;52.922;5.742;2022-08-04T05:02:16;21.90;99.90
57132;DHT22;43005;52.922;5.742;2022-08-04T05:05:01;22.00;99.90
57132;DHT22;43005;52.922;5.742;2022-08-04T05:07:40;22.00;99.90
57132;DHT22;43005;52.922;5.742;2022-08-04T05:10:14;22.10;99.90
57132;DHT22;43005;52.922;5.742;2022-08-04T05:12:57;22.20;99.90
57132;DHT22;43005;52.922;5.742;2022-08-04T05:15:30;22.20;99.90
57132;DHT22;43005;52.922;5.742;2022-08-04T05:17:59;22.30;99.90
57132;DHT22;43005;52.922;5.742;2022-08-04T05:20:32;22.40;99.90
57132;DHT22;43005;52.922;5.742;2022-08-04T05:23:01;22.40;99.90
57132;DHT22;43005;52.922;5.742;2022-08-04T05:25:31;22.50;99.90
57132;DHT22;43005;52.922;5.742;2022-08-04T05:28:02;22.50;99.90
57132;DHT22;43005;52.922;5.742;2022-08-04T05:30:29;22.60;99.90
57132;DHT22;43005;52.922;5.742;2022-08-04T05:32:59;22.70;99.90
57132;DHT22;43005;52.922;5.742;2022-08-04T05:35:31;22.80;99.90
57132;DHT22;43005;52.922;5.742;2022-08-04T05:37:59;23.00;99.90
57132;DHT22;43005;52.922;5.742;2022-08-04T05:40:27;23.10;99.90
57132;DHT22;43005;52.922;5.742;2022-08-04T05:42:54;23.20;99.90
57132;DHT22;43005;52.922;5.742;2022-08-04T05:45:21;23.40;99.90
57132;DHT22;43005;52.922;5.742;2022-08-04T05:47:48;23.50;99.90
57132;DHT22;43005;52.922;5.742;2022-08-04T05:50:16;23.60;99.90
57132;DHT22;43005;52.922;5.742;2022-08-04T05:52:45;23.70;99.90
57132;DHT22;43005;52.922;5.742;2022-08-04T05:55:12;23.80;99.90
57132;DHT22;43005;52.922;5.742;2022-08-04T05:57:39;24.00;99.90
57132;DHT22;43005;52.922;5.742;2022-08-04T06:00:06;24.10;99.90
57132;DHT22;43005;52.922;5.742;2022-08-04T06:02:33;24.10;99.90
57132;DHT22;43005;52.922;5.742;2022-08-04T06:05:01;24.30;99.90
57132;DHT22;43005;52.922;5.742;2022-08-04T06:07:29;24.30;99.90
57132;DHT22;43005;52.922;5.742;2022-08-04T06:09:58;24.40;99.90
57132;DHT22;43005;52.922;5.742;2022-08-04T06:12:28;24.40;99.90
57132;DHT22;43005;52.922;5.742;2022-08-04T06:14:56;24.50;98.90
57132;DHT22;43005;52.922;5.742;2022-08-04T06:17:24;24.50;98.70
57132;DHT22;43005;52.922;5.742;2022-08-04T06:19:52;24.60;98.90
57132;DHT22;43005;52.922;5.742;2022-08-04T06:22:19;24.60;99.40
57132;DHT22;43005;52.922;5.742;2022-08-04T06:24:47;24.70;99.30
57132;DHT22;43005;52.922;5.742;2022-08-04T06:27:17;24.80;99.20
57132;DHT22;43005;52.922;5.742;2022-08-04T06:29:45;24.90;99.20
57132;DHT22;43005;52.922;5.742;2022-08-04T06:32:14;24.90;98.80
57132;DHT22;43005;52.922;5.742;2022-08-04T06:34:52;25.00;98.80
57132;DHT22;43005;52.922;5.742;2022-08-04T06:37:20;25.10;99.20
57132;DHT22;43005;52.922;5.742;2022-08-04T06:39:46;25.10;99.90
57132;DHT22;43005;52.922;5.742;2022-08-04T06:42:14;25.20;99.90
57132;DHT22;43005;52.922;5.742;2022-08-04T06:44:43;25.30;99.90
57132;DHT22;43005;52.922;5.742;2022-08-04T06:47:11;25.40;99.90
57132;DHT22;43005;52.922;5.742;2022-08-04T06:49:38;25.50;99.30
57132;DHT22;43005;52.922;5.742;2022-08-04T06:52:05;25.50;97.00
57132;DHT22;43005;52.922;5.742;2022-08-04T06:54:33;25.40;95.00
57132;DHT22;43005;52.922;5.742;2022-08-04T06:56:59;25.40;95.80
57132;DHT22;43005;52.922;5.742;2022-08-04T06:59:27;25.40;94.20
57132;DHT22;43005;52.922;5.742;2022-08-04T07:01:55;25.40;93.70
57132;DHT22;43005;52.922;5.742;2022-08-04T07:04:23;25.40;94.20
57132;DHT22;43005;52.922;5.742;2022-08-04T07:06:50;25.40;94.40
57132;DHT22;43005;52.922;5.742;2022-08-04T07:09:16;25.50;94.20
57132;DHT22;43005;52.922;5.742;2022-08-04T07:11:43;25.60;92.70
57132;DHT22;43005;52.922;5.742;2022-08-04T07:14:11;25.60;92.30
57132;DHT22;43005;52.922;5.742;2022-08-04T07:16:38;25.60;91.90
57132;DHT22;43005;52.922;5.742;2022-08-04T07:19:07;25.60;91.50
57132;DHT22;43005;52.922;5.742;2022-08-04T07:21:34;25.70;91.80
57132;DHT22;43005;52.922;5.742;2022-08-04T07:24:01;25.80;92.70
57132;DHT22;43005;52.922;5.742;2022-08-04T07:26:27;26.00;92.60
57132;DHT22;43005;52.922;5.742;2022-08-04T07:28:54;26.20;91.60
57132;DHT22;43005;52.922;5.742;2022-08-04T07:31:21;26.20;91.50
57132;DHT22;43005;52.922;5.742;2022-08-04T07:33:48;26.20;91.50
57132;DHT22;43005;52.922;5.742;2022-08-04T07:36:17;26.20;92.00
57132;DHT22;43005;52.922;5.742;2022-08-04T07:38:44;26.10;91.90
57132;DHT22;43005;52.922;5.742;2022-08-04T07:41:10;26.20;92.50
57132;DHT22;43005;52.922;5.742;2022-08-04T07:43:37;26.30;91.50
57132;DHT22;43005;52.922;5.742;2022-08-04T07:46:04;26.30;90.80
57132;DHT22;43005;52.922;5.742;2022-08-04T07:48:31;26.20;91.70
57132;DHT22;43005;52.922;5.742;2022-08-04T07:50:58;26.10;91.20
57132;DHT22;43005;52.922;5.742;2022-08-04T07:53:26;26.20;91.50
57132;DHT22;43005;52.922;5.742;2022-08-04T07:55:54;26.20;91.00
57132;DHT22;43005;52.922;5.742;2022-08-04T07:58:21;26.10;91.00
57132;DHT22;43005;52.922;5.742;2022-08-04T08:00:48;26.00;92.40
57132;DHT22;43005;52.922;5.742;2022-08-04T08:03:14;26.10;92.60
57132;DHT22;43005;52.922;5.742;2022-08-04T08:05:41;26.30;92.20
57132;DHT22;43005;52.922;5.742;2022-08-04T08:08:08;26.40;90.90
57132;DHT22;43005;52.922;5.742;2022-08-04T08:10:37;26.50;91.10
57132;DHT22;43005;52.922;5.742;2022-08-04T08:13:04;26.60;90.40
57132;DHT22;43005;52.922;5.742;2022-08-04T08:15:32;26.70;89.80
57132;DHT22;43005;52.922;5.742;2022-08-04T08:17:59;26.80;88.30
57132;DHT22;43005;52.922;5.742;2022-08-04T08:20:29;27.00;84.40
57132;DHT22;43005;52.922;5.742;2022-08-04T08:22:56;27.20;84.30
57132;DHT22;43005;52.922;5.742;2022-08-04T08:25:22;27.30;79.50
57132;DHT22;43005;52.922;5.742;2022-08-04T08:27:51;27.40;79.70
57132;DHT22;43005;52.922;5.742;2022-08-04T08:30:17;27.60;76.00
57132;DHT22;43005;52.922;5.742;2022-08-04T08:32:44;27.50;73.40
57132;DHT22;43005;52.922;5.742;2022-08-04T08:35:11;27.60;74.90
57132;DHT22;43005;52.922;5.742;2022-08-04T08:37:40;27.70;74.70
57132;DHT22;43005;52.922;5.742;2022-08-04T08:40:16;27.80;72.10
57132;DHT22;43005;52.922;5.742;2022-08-04T08:45:33;28.00;70.40
57132;DHT22;43005;52.922;5.742;2022-08-04T08:48:17;28.20;68.50
57132;DHT22;43005;52.922;5.742;2022-08-04T08:53:56;28.60;65.70
57132;DHT22;43005;52.922;5.742;2022-08-04T08:56:30;28.60;62.50
57132;DHT22;43005;52.922;5.742;2022-08-04T08:59:07;28.60;63.00
57132;DHT22;43005;52.922;5.742;2022-08-04T09:01:48;28.80;64.00
57132;DHT22;43005;52.922;5.742;2022-08-04T09:04:28;29.00;60.50
57132;DHT22;43005;52.922;5.742;2022-08-04T09:07:06;29.30;61.70
57132;DHT22;43005;52.922;5.742;2022-08-04T09:09:44;29.30;60.70
57132;DHT22;43005;52.922;5.742;2022-08-04T09:12:14;29.50;60.80
57132;DHT22;43005;52.922;5.742;2022-08-04T09:14:44;29.60;59.90
57132;DHT22;43005;52.922;5.742;2022-08-04T09:17:19;29.90;59.20
57132;DHT22;43005;52.922;5.742;2022-08-04T09:19:49;30.00;58.60
57132;DHT22;43005;52.922;5.742;2022-08-04T09:22:18;30.10;58.00
57132;DHT22;43005;52.922;5.742;2022-08-04T09:24:47;30.30;57.90
57132;DHT22;43005;52.922;5.742;2022-08-04T09:27:17;30.30;56.90
57132;DHT22;43005;52.922;5.742;2022-08-04T09:29:46;30.10;56.00
57132;DHT22;43005;52.922;5.742;2022-08-04T09:32:16;30.00;56.10
57132;DHT22;43005;52.922;5.742;2022-08-04T09:34:50;29.90;55.40
57132;DHT22;43005;52.922;5.742;2022-08-04T09:37:23;29.60;55.50
57132;DHT22;43005;52.922;5.742;2022-08-04T09:39:55;29.70;55.90
57132;DHT22;43005;52.922;5.742;2022-08-04T09:42:29;29.90;55.60
57132;DHT22;43005;52.922;5.742;2022-08-04T09:45:02;30.10;54.40
57132;DHT22;43005;52.922;5.742;2022-08-04T09:47:31;30.30;53.30
57132;DHT22;43005;52.922;5.742;2022-08-04T09:50:03;30.50;54.50
57132;DHT22;43005;52.922;5.742;2022-08-04T09:52:38;30.70;52.90
57132;DHT22;43005;52.922;5.742;2022-08-04T09:55:08;30.80;53.30
57132;DHT22;43005;52.922;5.742;2022-08-04T09:57:43;30.90;52.20
57132;DHT22;43005;52.922;5.742;2022-08-04T10:00:12;31.00;52.40
57132;DHT22;43005;52.922;5.742;2022-08-04T10:02:43;31.00;51.10
57132;DHT22;43005;52.922;5.742;2022-08-04T10:05:12;31.00;49.30
57132;DHT22;43005;52.922;5.742;2022-08-04T10:07:42;31.10;49.30
57132;DHT22;43005;52.922;5.742;2022-08-04T10:10:13;31.30;48.70
57132;DHT22;43005;52.922;5.742;2022-08-04T10:12:45;31.40;48.00
57132;DHT22;43005;52.922;5.742;2022-08-04T10:15:19;31.60;47.30
57132;DHT22;43005;52.922;5.742;2022-08-04T10:17:54;31.40;47.80
57132;DHT22;43005;52.922;5.742;2022-08-04T10:20:36;31.60;48.60
57132;DHT22;43005;52.922;5.742;2022-08-04T10:23:10;31.90;48.10
57132;DHT22;43005;52.922;5.742;2022-08-04T10:25:41;32.20;47.70
57132;DHT22;43005;52.922;5.742;2022-08-04T10:28:12;32.10;46.80
57132;DHT22;43005;52.922;5.742;2022-08-04T10:30:43;32.10;45.80
57132;DHT22;43005;52.922;5.742;2022-08-04T10:33:17;32.10;46.30
57132;DHT22;43005;52.922;5.742;2022-08-04T10:35:48;31.90;45.30
57132;DHT22;43005;52.922;5.742;2022-08-04T10:38:17;31.70;45.80
57132;DHT22;43005;52.922;5.742;2022-08-04T10:40:47;31.40;45.10
57132;DHT22;43005;52.922;5.742;2022-08-04T10:43:19;31.30;46.00
57132;DHT22;43005;52.922;5.742;2022-08-04T10:45:48;31.30;46.90
57132;DHT22;43005;52.922;5.742;2022-08-04T10:48:18;31.30;46.20
57132;DHT22;43005;52.922;5.742;2022-08-04T10:50:49;31.20;46.00
57132;DHT22;43005;52.922;5.742;2022-08-04T10:53:19;31.10;46.10
57132;DHT22;43005;52.922;5.742;2022-08-04T10:55:49;31.00;46.70
57132;DHT22;43005;52.922;5.742;2022-08-04T10:58:18;31.00;45.60
57132;DHT22;43005;52.922;5.742;2022-08-04T11:00:45;30.90;44.90
57132;DHT22;43005;52.922;5.742;2022-08-04T11:03:17;30.80;45.70
57132;DHT22;43005;52.922;5.742;2022-08-04T11:05:46;30.80;45.20
57132;DHT22;43005;52.922;5.742;2022-08-04T11:08:17;30.80;45.00
57132;DHT22;43005;52.922;5.742;2022-08-04T11:10:45;30.80;45.40
57132;DHT22;43005;52.922;5.742;2022-08-04T11:13:14;30.80;45.70
57132;DHT22;43005;52.922;5.742;2022-08-04T11:15:44;30.70;45.60
57132;DHT22;43005;52.922;5.742;2022-08-04T11:18:12;30.60;45.40
57132;DHT22;43005;52.922;5.742;2022-08-04T11:20:42;30.50;45.70
57132;DHT22;43005;52.922;5.742;2022-08-04T11:23:11;30.60;46.10
57132;DHT22;43005;52.922;5.742;2022-08-04T11:25:46;30.60;46.10
57132;DHT22;43005;52.922;5.742;2022-08-04T11:28:18;30.60;46.30
57132;DHT22;43005;52.922;5.742;2022-08-04T11:30:50;30.70;45.70
57132;DHT22;43005;52.922;5.742;2022-08-04T11:33:20;30.70;46.10
57132;DHT22;43005;52.922;5.742;2022-08-04T11:35:49;30.60;45.30
57132;DHT22;43005;52.922;5.742;2022-08-04T11:38:21;30.50;45.60
57132;DHT22;43005;52.922;5.742;2022-08-04T11:40:51;30.60;45.80
57132;DHT22;43005;52.922;5.742;2022-08-04T11:43:21;30.60;45.40
57132;DHT22;43005;52.922;5.742;2022-08-04T11:45:50;30.70;46.70
57132;DHT22;43005;52.922;5.742;2022-08-04T11:48:19;30.80;46.70
57132;DHT22;43005;52.922;5.742;2022-08-04T11:50:51;30.80;46.80
57132;DHT22;43005;52.922;5.742;2022-08-04T11:53:19;30.60;46.90
57132;DHT22;43005;52.922;5.742;2022-08-04T11:55:47;30.50;47.30
57132;DHT22;43005;52.922;5.742;2022-08-04T11:58:16;30.60;47.20
57132;DHT22;43005;52.922;5.742;2022-08-04T12:00:44;30.60;46.10
57132;DHT22;43005;52.922;5.742;2022-08-04T12:03:23;30.60;46.50
57132;DHT22;43005;52.922;5.742;2022-08-04T12:05:54;30.60;46.60
57132;DHT22;43005;52.922;5.742;2022-08-04T12:08:34;30.50;46.50
57132;DHT22;43005;52.922;5.742;2022-08-04T12:11:04;30.60;46.80
57132;DHT22;43005;52.922;5.742;2022-08-04T12:13:38;30.80;46.60
57132;DHT22;43005;52.922;5.742;2022-08-04T12:16:09;31.00;46.10
57132;DHT22;43005;52.922;5.742;2022-08-04T12:18:38;31.50;45.40
57132;DHT22;43005;52.922;5.742;2022-08-04T12:21:08;32.20;43.70
57132;DHT22;43005;52.922;5.742;2022-08-04T12:23:37;32.30;43.30
57132;DHT22;43005;52.922;5.742;2022-08-04T12:26:05;32.90;43.40
57132;DHT22;43005;52.922;5.742;2022-08-04T12:28:32;33.30;42.20
57132;DHT22;43005;52.922;5.742;2022-08-04T12:31:04;33.20;41.90
57132;DHT22;43005;52.922;5.742;2022-08-04T12:33:34;33.40;41.80
57132;DHT22;43005;52.922;5.742;2022-08-04T12:36:08;33.80;41.70
57132;DHT22;43005;52.922;5.742;2022-08-04T12:38:41;34.10;41.10
57132;DHT22;43005;52.922;5.742;2022-08-04T12:41:10;34.50;40.30
57132;DHT22;43005;52.922;5.742;2022-08-04T12:43:40;34.80;40.30
57132;DHT22;43005;52.922;5.742;2022-08-04T12:46:09;34.80;38.80
57132;DHT22;43005;52.922;5.742;2022-08-04T12:48:36;34.80;39.60
57132;DHT22;43005;52.922;5.742;2022-08-04T12:51:04;35.00;39.30
57132;DHT22;43005;52.922;5.742;2022-08-04T12:53:33;35.00;39.00
57132;DHT22;43005;52.922;5.742;2022-08-04T12:56:02;35.20;37.10
57132;DHT22;43005;52.922;5.742;2022-08-04T12:58:30;34.60;37.70
57132;DHT22;43005;52.922;5.742;2022-08-04T13:00:59;34.30;38.40
57132;DHT22;43005;52.922;5.742;2022-08-04T13:03:28;34.30;39.50
57132;DHT22;43005;52.922;5.742;2022-08-04T13:05:56;34.10;40.20
57132;DHT22;43005;52.922;5.742;2022-08-04T13:08:22;34.10;39.20
57132;DHT22;43005;52.922;5.742;2022-08-04T13:10:51;34.00;40.00
57132;DHT22;43005;52.922;5.742;2022-08-04T13:13:18;33.90;40.60
57132;DHT22;43005;52.922;5.742;2022-08-04T13:15:56;34.10;40.80
57132;DHT22;43005;52.922;5.742;2022-08-04T13:18:23;34.10;40.20
57132;DHT22;43005;52.922;5.742;2022-08-04T13:20:52;34.10;40.90
57132;DHT22;43005;52.922;5.742;2022-08-04T13:23:20;34.00;39.60
57132;DHT22;43005;52.922;5.742;2022-08-04T13:25:48;33.90;40.90
57132;DHT22;43005;52.922;5.742;2022-08-04T13:28:18;34.00;40.90
57132;DHT22;43005;52.922;5.742;2022-08-04T13:30:45;33.80;40.70
57132;DHT22;43005;52.922;5.742;2022-08-04T13:33:12;33.80;40.10
57132;DHT22;43005;52.922;5.742;2022-08-04T13:35:41;33.70;40.50
57132;DHT22;43005;52.922;5.742;2022-08-04T13:38:11;34.30;40.30
57132;DHT22;43005;52.922;5.742;2022-08-04T13:40:38;34.50;39.70
57132;DHT22;43005;52.922;5.742;2022-08-04T13:43:06;34.50;38.50
57132;DHT22;43005;52.922;5.742;2022-08-04T13:45:34;34.30;38.90
57132;DHT22;43005;52.922;5.742;2022-08-04T13:48:02;34.00;38.80
57132;DHT22;43005;52.922;5.742;2022-08-04T13:50:30;33.90;39.20
57132;DHT22;43005;52.922;5.742;2022-08-04T13:52:58;33.70;38.80
57132;DHT22;43005;52.922;5.742;2022-08-04T13:55:28;33.60;38.60
57132;DHT22;43005;52.922;5.742;2022-08-04T13:57:57;33.60;40.00
57132;DHT22;43005;52.922;5.742;2022-08-04T14:00:24;33.90;39.80
57132;DHT22;43005;52.922;5.742;2022-08-04T14:02:56;34.10;39.40
57132;DHT22;43005;52.922;5.742;2022-08-04T14:05:25;34.30;38.40
57132;DHT22;43005;52.922;5.742;2022-08-04T14:07:53;34.30;38.20
57132;DHT22;43005;52.922;5.742;2022-08-04T14:10:20;34.00;39.00
57132;DHT22;43005;52.922;5.742;2022-08-04T14:12:50;33.90;39.40
57132;DHT22;43005;52.922;5.742;2022-08-04T14:15:30;33.70;40.60
57132;DHT22;43005;52.922;5.742;2022-08-04T14:18:14;33.60;41.50
57132;DHT22;43005;52.922;5.742;2022-08-04T14:20:52;33.30;41.90
57132;DHT22;43005;52.922;5.742;2022-08-04T14:23:23;33.10;42.60
57132;DHT22;43005;52.922;5.742;2022-08-04T14:25:49;33.20;43.40
57132;DHT22;43005;52.922;5.742;2022-08-04T14:28:26;33.80;43.10
57132;DHT22;43005;52.922;5.742;2022-08-04T14:31:07;34.10;42.30
57132;DHT22;43005;52.922;5.742;2022-08-04T14:33:37;34.80;42.40
57132;DHT22;43005;52.922;5.742;2022-08-04T14:36:04;35.90;40.30
57132;DHT22;43005;52.922;5.742;2022-08-04T14:38:41;36.10;39.40
57132;DHT22;43005;52.922;5.742;2022-08-04T14:41:08;36.20;40.20
57132;DHT22;43005;52.922;5.742;2022-08-04T14:43:41;36.60;39.90
57132;DHT22;43005;52.922;5.742;2022-08-04T14:46:08;37.00;39.20
57132;DHT22;43005;52.922;5.742;2022-08-04T14:48:35;37.40;38.60
57132;DHT22;43005;52.922;5.742;2022-08-04T14:51:02;37.00;38.10
57132;DHT22;43005;52.922;5.742;2022-08-04T14:53:29;36.60;38.90
57132;DHT22;43005;52.922;5.742;2022-08-04T14:55:56;36.10;39.10
57132;DHT22;43005;52.922;5.742;2022-08-04T14:58:24;35.90;39.80
57132;DHT22;43005;52.922;5.742;2022-08-04T15:00:53;35.90;39.60
57132;DHT22;43005;52.922;5.742;2022-08-04T15:03:20;35.70;40.00
57132;DHT22;43005;52.922;5.742;2022-08-04T15:05:47;35.20;40.00
57132;DHT22;43005;52.922;5.742;2022-08-04T15:08:14;34.80;40.00
57132;DHT22;43005;52.922;5.742;2022-08-04T15:10:42;34.40;40.80
57132;DHT22;43005;52.922;5.742;2022-08-04T15:13:09;34.30;41.20
57132;DHT22;43005;52.922;5.742;2022-08-04T15:15:37;34.60;40.70
57132;DHT22;43005;52.922;5.742;2022-08-04T15:18:07;34.70;40.60
57132;DHT22;43005;52.922;5.742;2022-08-04T15:20:34;34.40;40.00
57132;DHT22;43005;52.922;5.742;2022-08-04T15:23:02;33.80;40.10
57132;DHT22;43005;52.922;5.742;2022-08-04T15:25:30;33.50;41.00
57132;DHT22;43005;52.922;5.742;2022-08-04T15:27:58;33.30;41.50
57132;DHT22;43005;52.922;5.742;2022-08-04T15:30:26;33.10;42.30
57132;DHT22;43005;52.922;5.742;2022-08-04T15:32:55;32.90;43.10
57132;DHT22;43005;52.922;5.742;2022-08-04T15:35:25;32.80;43.80
57132;DHT22;43005;52.922;5.742;2022-08-04T15:37:58;32.70;43.90
57132;DHT22;43005;52.922;5.742;2022-08-04T15:40:26;32.40;43.40
57132;DHT22;43005;52.922;5.742;2022-08-04T15:43:00;32.00;43.80
57132;DHT22;43005;52.922;5.742;2022-08-04T15:45:28;31.90;45.10
57132;DHT22;43005;52.922;5.742;2022-08-04T15:53:24;31.20;45.30
57132;DHT22;43005;52.922;5.742;2022-08-04T15:55:51;31.00;45.30
57132;DHT22;43005;52.922;5.742;2022-08-04T15:58:18;30.70;45.70
57132;DHT22;43005;52.922;5.742;2022-08-04T16:03:43;30.10;47.20
57132;DHT22;43005;52.922;5.742;2022-08-04T16:08:59;29.50;48.00
57132;DHT22;43005;52.922;5.742;2022-08-04T16:11:36;29.40;48.60
57132;DHT22;43005;52.922;5.742;2022-08-04T16:14:08;29.20;49.20
57132;DHT22;43005;52.922;5.742;2022-08-04T16:16:44;29.00;49.30
57132;DHT22;43005;52.922;5.742;2022-08-04T16:19:16;28.90;49.90
57132;DHT22;43005;52.922;5.742;2022-08-04T16:21:45;28.70;50.20
57132;DHT22;43005;52.922;5.742;2022-08-04T16:24:18;28.50;50.70
57132;DHT22;43005;52.922;5.742;2022-08-04T16:26:47;28.50;51.10
57132;DHT22;43005;52.922;5.742;2022-08-04T16:29:26;28.40;51.30
57132;DHT22;43005;52.922;5.742;2022-08-04T16:34:48;28.40;51.90
57132;DHT22;43005;52.922;5.742;2022-08-04T16:37:18;28.50;51.90
57132;DHT22;43005;52.922;5.742;2022-08-04T16:39:46;28.60;51.70
57132;DHT22;43005;52.922;5.742;2022-08-04T16:42:29;28.60;51.80
57132;DHT22;43005;52.922;5.742;2022-08-04T16:45:00;28.60;51.70
57132;DHT22;43005;52.922;5.742;2022-08-04T16:50:12;28.60;51.80
57132;DHT22;43005;52.922;5.742;2022-08-04T16:52:41;28.60;51.70
57132;DHT22;43005;52.922;5.742;2022-08-04T16:55:09;28.50;51.50
57132;DHT22;43005;52.922;5.742;2022-08-04T16:57:36;28.60;51.40
57132;DHT22;43005;52.922;5.742;2022-08-04T17:00:03;28.50;50.80
57132;DHT22;43005;52.922;5.742;2022-08-04T17:02:31;28.40;51.50
57132;DHT22;43005;52.922;5.742;2022-08-04T17:04:58;28.40;51.80